Flight Track Log - Related Links

Times and Time Zones

All times are in EDT time to prevent confusion due to time zone crossing. See the UPS1132 flight status page for this flight to view local times or setup timezone preferences in your user account.

Time Position Orientation Groundspeed Altitude Reporting Facility
EDT Latitude Longitude Course Direction KTS MPH feet Rate Location/Type
Sat 05:42:47 AM 38.1660 -85.7240 159° South 161 185 900  Level FlightAware ADS-B
Sat 05:43:17 AM 38.1440 -85.7190 170° South 174 200 2,300 2,291 Climbing FlightAware ADS-B
Sat 05:43:42 AM 38.1220 -85.7150 172° South 199 229 3,000 1,636 Climbing FlightAware ADS-B
Sat 05:44:12 AM 38.0930 -85.7070 168° South 230 265 3,800 1,867 Climbing FlightAware ADS-B
Sat 05:44:27 AM 38.0800 -85.6950 144° Southeast 239 275 4,400 2,640 Climbing FlightAware ADS-B
Sat 05:44:37 AM 38.0750 -85.6830 118° Southeast 244 281 4,900 2,700 Climbing FlightAware ADS-B
Sat 05:44:47 AM 38.0720 -85.6680 104° East 254 292 5,300 2,800 Climbing FlightAware ADS-B
Sat 05:45:22 AM 38.0910 -85.6190 64° Northeast 271 312 7,000 2,640 Climbing FlightAware ADS-B
Sat 05:45:37 AM 38.1060 -85.6060 34° Northeast 281 323 7,500 2,400 Climbing FlightAware ADS-B
Sat 05:46:02 AM 38.1330 -85.5800 37° Northeast 285 328 8,600 2,700 Climbing FlightAware ADS-B
Sat 05:46:17 AM 38.1470 -85.5630 44° Northeast 286 329 9,300 2,280 Climbing FlightAware ADS-B
Sat 05:46:52 AM 38.1790 -85.5160 49° Northeast 309 356 10,500 1,553 Climbing FlightAware ADS-B
Sat 05:47:42 AM 38.2290 -85.4360 51° Northeast 360 414 11,500 1,200 Climbing FlightAware ADS-B
Sat 05:48:37 AM 38.2850 -85.3500 50° Northeast 370 426 12,600 695 Climbing FlightAware ADS-B
Sat 05:49:17 AM 38.3210 -85.2930 51° Northeast 370 426 12,600 3,106 Level FlightAware ADS-B
Sat 05:50:02 AM 38.3820 -85.1870 54° Northeast 396 456 17,000 4,000 Climbing FlightAware ADS-B
Sat 05:50:47 AM 38.4310 -85.1040 53° Northeast 405 466 18,600 2,047 Climbing FlightAware ADS-B
Sat 05:51:27 AM 38.4760 -85.0300 52° Northeast 410 472 19,900 1,040 Climbing FlightAware ADS-B
Sat 05:52:02 AM 38.5110 -84.9690 54° Northeast 410 472 19,900  Level FlightAware ADS-B
Sat 05:52:42 AM 38.5500 -84.9030 53° Northeast 410 472 19,900  Level FlightAware ADS-B
Sat 05:53:32 AM 38.5990 -84.8210 53° Northeast 410 472 19,900  Level FlightAware ADS-B
Sat 05:54:12 AM 38.6380 -84.7550 53° Northeast 410 472 19,900  Level FlightAware ADS-B
Sat 05:54:52 AM 38.6760 -84.6890 54° Northeast 410 472 19,900 3,243 Level FlightAware ADS-B
Sat 05:57:17 AM 38.8370 -84.2220 66° East 476 548 29,900 3,180 Climbing FlightAware ADS-B
Sat 05:58:12 AM 38.9060 -84.1060 53° Northeast 477 549 30,500 1,800 Climbing FlightAware ADS-B
Sat 05:58:57 AM 38.9700 -83.9970 53° Northeast 467 537 32,900 2,471 Climbing FlightAware ADS-B
Sat 05:59:37 AM 39.0220 -83.9100 52° Northeast 463 533 34,000 1,575 Climbing FlightAware ADS-B
Sat 06:00:17 AM 39.0730 -83.8230 53° Northeast 459 528 35,000 706 Climbing FlightAware ADS-B
Sat 06:01:02 AM 39.1320 -83.7220 53° Northeast 460 529 35,000  Level FlightAware ADS-B
Sat 06:01:42 AM 39.1810 -83.6390 53° Northeast 465 535 35,000 494 Level FlightAware ADS-B
Sat 06:02:27 AM 39.2410 -83.5360 53° Northeast 464 534 35,700 1,120 Climbing FlightAware ADS-B
Sat 06:02:57 AM 39.2780 -83.4730 53° Northeast 460 529 36,400 975 Climbing FlightAware ADS-B
Sat 06:03:47 AM 39.3430 -83.3620 53° Northeast 460 529 37,000 379 Climbing FlightAware ADS-B
Sat 06:04:32 AM 39.3980 -83.2660 53° Northeast 460 529 37,000  Level FlightAware ADS-B
Sat 06:05:12 AM 39.4520 -83.1730 53° Northeast 465 535 37,000  Level FlightAware ADS-B
Sat 06:05:52 AM 39.5060 -83.0800 53° Northeast 465 535 37,000  Level FlightAware ADS-B
Sat 06:06:52 AM 39.5780 -82.9560 53° Northeast 465 535 37,000  Level FlightAware ADS-B
Sat 06:08:12 AM 39.6850 -82.7690 53° Northeast 465 535 37,000  Level FlightAware ADS-B
Sat 06:08:57 AM 39.7430 -82.6680 53° Northeast 466 536 37,000  Level FlightAware ADS-B
Sat 06:09:37 AM 39.7950 -82.5760 54° Northeast 466 536 37,000  Level FlightAware ADS-B
Sat 06:10:22 AM 39.8510 -82.4760 54° Northeast 465 535 37,000  Level FlightAware ADS-B
Sat 06:11:02 AM 39.9020 -82.3860 54° Northeast 466 536 37,000  Level FlightAware ADS-B
Sat 06:11:47 AM 39.9610 -82.2810 54° Northeast 465 535 37,000  Level FlightAware ADS-B
Sat 06:12:27 AM 40.0110 -82.1920 54° Northeast 465 535 37,000  Level FlightAware ADS-B
Sat 06:13:07 AM 40.0630 -82.1000 54° Northeast 464 534 37,000  Level FlightAware ADS-B
Sat 06:13:52 AM 40.1210 -81.9970 54° Northeast 464 534 37,000  Level FlightAware ADS-B
Sat 06:14:32 AM 40.1700 -81.9100 54° Northeast 464 534 37,000  Level FlightAware ADS-B
Sat 06:15:12 AM 40.2230 -81.8140 54° Northeast 464 534 37,000  Level FlightAware ADS-B
Sat 06:15:57 AM 40.2790 -81.7140 54° Northeast 464 534 37,000  Level FlightAware ADS-B
Sat 06:16:37 AM 40.3310 -81.6210 54° Northeast 464 534 37,000  Level FlightAware ADS-B
Sat 06:17:17 AM 40.3810 -81.5290 54° Northeast 465 535 37,000  Level FlightAware ADS-B
Sat 06:18:02 AM 40.4370 -81.4270 54° Northeast 465 535 37,000  Level FlightAware ADS-B
Sat 06:18:42 AM 40.4870 -81.3360 54° Northeast 464 534 37,000  Level FlightAware ADS-B
Sat 06:19:22 AM 40.5360 -81.2450 55° Northeast 463 533 37,000  Level FlightAware ADS-B
Sat 06:20:07 AM 40.5940 -81.1380 54° Northeast 463 533 37,000  Level FlightAware ADS-B
Sat 06:20:47 AM 40.6410 -81.0510 55° Northeast 463 533 37,000  Level FlightAware ADS-B
Sat 06:21:32 AM 40.6990 -80.9440 54° Northeast 463 533 37,000  Level FlightAware ADS-B
Sat 06:22:12 AM 40.7480 -80.8540 54° Northeast 463 533 37,000  Level FlightAware ADS-B
Sat 06:22:52 AM 40.7980 -80.7600 55° Northeast 464 534 37,000  Level FlightAware ADS-B
Sat 06:23:37 AM 40.8530 -80.6570 55° Northeast 465 535 37,000  Level FlightAware ADS-B
Sat 06:24:17 AM 40.9030 -80.5640 55° Northeast 466 536 37,000 -353 Level FlightAware ADS-B
Sat 06:25:02 AM 40.9580 -80.4600 55° Northeast 465 535 36,500 -1,000 Descending FlightAware ADS-B
Sat 06:25:47 AM 41.0140 -80.3550 55° Northeast 469 540 35,500 -1,341 Descending FlightAware ADS-B
Sat 06:26:27 AM 41.0640 -80.2610 55° Northeast 475 547 34,600 -1,125 Descending FlightAware ADS-B
Sat 06:27:07 AM 41.1160 -80.1600 56° Northeast 481 554 34,000 -450 Descending FlightAware ADS-B
Sat 06:27:47 AM 41.1670 -80.0630 55° Northeast 484 557 34,000  Level FlightAware ADS-B
Sat 06:28:27 AM 41.2160 -79.9710 55° Northeast 487 560 34,000  Level FlightAware ADS-B
Sat 06:29:17 AM 41.2660 -79.8750 55° Northeast 485 558 34,000  Level FlightAware ADS-B
Sat 06:29:57 AM 41.3340 -79.7440 55° Northeast 483 556 34,000  Level FlightAware ADS-B
Sat 06:30:42 AM 41.3890 -79.6380 55° Northeast 482 555 34,000  Level FlightAware ADS-B
Sat 06:31:22 AM 41.4410 -79.5380 55° Northeast 482 555 34,000  Level FlightAware ADS-B
Sat 06:32:02 AM 41.4880 -79.4480 55° Northeast 481 554 34,000  Level FlightAware ADS-B
Sat 06:32:47 AM 41.5410 -79.3440 56° Northeast 482 555 34,000  Level FlightAware ADS-B
Sat 06:33:27 AM 41.5950 -79.2390 55° Northeast 481 554 34,000 -424 Level FlightAware ADS-B
Sat 06:34:12 AM 41.6510 -79.1300 55° Northeast 481 554 33,400 -975 Descending FlightAware ADS-B
Sat 06:34:47 AM 41.6950 -79.0430 56° Northeast 485 558 32,700 -1,275 Descending FlightAware ADS-B
Sat 06:35:32 AM 41.7530 -78.9280 56° Northeast 489 563 31,700 -1,200 Descending FlightAware ADS-B
Sat 06:36:17 AM 41.8080 -78.8180 56° Northeast 489 563 30,900 -1,125 Descending FlightAware ADS-B
Sat 06:36:52 AM 41.8540 -78.7280 56° Northeast 492 566 30,200 -1,275 Descending FlightAware ADS-B
Sat 06:37:37 AM 41.9110 -78.6130 56° Northeast 496 571 29,200 -1,400 Descending FlightAware ADS-B
Sat 06:38:22 AM 41.9700 -78.4970 56° Northeast 499 574 28,100 -847 Descending FlightAware ADS-B
Sat 06:39:02 AM 42.0200 -78.3960 56° Northeast 484 557 28,000 -71 Descending FlightAware ADS-B
Sat 06:39:47 AM 42.0750 -78.2840 56° Northeast 480 552 28,000  Level FlightAware ADS-B
Sat 06:40:27 AM 42.1260 -78.1860 55° Northeast 474 545 28,000  Level FlightAware ADS-B
Sat 06:41:07 AM 42.1810 -78.0950 51° Northeast 474 545 28,000  Level FlightAware ADS-B
Sat 06:41:52 AM 42.2430 -77.9910 51° Northeast 477 549 28,000  Level FlightAware ADS-B
Sat 06:42:32 AM 42.2990 -77.8960 51° Northeast 475 547 28,000  Level FlightAware ADS-B
Sat 06:43:17 AM 42.3600 -77.7910 52° Northeast 475 547 28,000  Level FlightAware ADS-B
Sat 06:43:57 AM 42.4130 -77.6990 52° Northeast 475 547 28,000  Level FlightAware ADS-B
Sat 06:44:37 AM 42.4660 -77.6080 52° Northeast 473 544 28,000  Level FlightAware ADS-B
Sat 06:45:22 AM 42.5280 -77.5000 52° Northeast 470 541 28,000 -71 Level FlightAware ADS-B
Sat 06:46:02 AM 42.5830 -77.4040 52° Northeast 471 542 27,900 -1,765 Descending FlightAware ADS-B
Sat 06:46:47 AM 42.6410 -77.3020 52° Northeast 487 560 25,500 -3,741 Descending FlightAware ADS-B
Sat 06:47:27 AM 42.6970 -77.2040 52° Northeast 488 562 22,600 -4,306 Descending FlightAware ADS-B
Sat 06:48:12 AM 42.7580 -77.0960 52° Northeast 464 534 19,400 -4,094 Descending FlightAware ADS-B
Sat 06:48:52 AM 42.8090 -77.0040 53° Northeast 444 511 16,800 -4,000 Descending FlightAware ADS-B
Sat 06:49:27 AM 42.8480 -76.9240 56° Northeast 427 491 14,400 -3,812 Descending FlightAware ADS-B
Sat 06:50:17 AM 42.8970 -76.8110 59° Northeast 395 455 11,400 -2,541 Descending FlightAware ADS-B
Sat 06:50:52 AM 42.9260 -76.7450 59° Northeast 335 386 10,800 -933 Descending FlightAware ADS-B
Sat 06:51:47 AM 42.9630 -76.6610 59° Northeast 309 356 10,000 -457 Descending FlightAware ADS-B
Sat 06:52:37 AM 42.9940 -76.5900 59° Northeast 309 356 10,000  Level FlightAware ADS-B
Sat 06:53:17 AM 43.0190 -76.5330 59° Northeast 309 356 10,000 -4,271 Level FlightAware ADS-B
Sat 06:53:36 AM 43.0394 -76.4831 59° Northeast 277 319 5,800 -4,275 Descending Boston Center
Sat 06:54:37 AM 43.0778 -76.3975 58° Northeast 259 298 4,300 -1,525 Descending Boston Center
Sat 06:55:38 AM 43.1142 -76.3144 59° Northeast 255 293 2,700 -1,190 Descending Boston Center
Sat 06:56:38 AM 43.1458 -76.2339 62° Northeast 232 267 1,900 -595 Descending Boston Center
Sat 06:57:39 AM 43.1542 -76.1747 79° East 129 148 1,500 -496 Descending Boston Center
Sat 06:58:39 AM 43.1367 -76.1364 122° Southeast 110 127 900 -600 Descending Boston Center

Login

Don't have an account? Register now (free) for customized features, flight alerts, and more!